Time;durP1;ratioP1;P1;durP2;ratioP2;P2;SDS_P1;SDS_P2;PMS_P1;PMS_P2;Temp;Humidity;BMP_temperature;BMP_pressure;BME280_temperature;BME280_humidity;BME280_pressure;Samples;Min_cycle;Max_cycle;Signal;HPM_P1;HPM_P2
2022/01/08 00:01:57;;;;;;;;;;;2.10;99.90;;;;;;5039836;28;19990;-80
2022/01/08 00:04:23;;;;;;;;;;;1.90;99.90;;;;;;5057146;28;19925;-80
2022/01/08 00:06:48;;;;;;;;;;;2.20;99.90;;;;;;5059157;28;19931;-80
2022/01/08 00:09:14;;;;;;;;;;;1.90;99.90;;;;;;5066449;28;19980;-80
2022/01/08 00:11:42;;;;;;;;;;;1.80;99.90;;;;;;5041874;28;20395;-79
2022/01/08 00:14:09;;;;;;;;;;;1.80;99.90;;;;;;5058014;28;19964;-79
2022/01/08 00:16:37;;;;;;;;;;;1.70;99.90;;;;;;5056442;28;19979;-79
2022/01/08 00:19:03;;;;;;;;;;;1.70;99.90;;;;;;5061609;28;19925;-79
2022/01/08 00:21:29;;;;;;;;;;;1.60;99.90;;;;;;5058468;28;19924;-79
2022/01/08 00:23:54;;;;;;;;;;;1.50;99.90;;;;;;5060657;28;19929;-79
2022/01/08 00:26:20;;;;;;;;;;;1.50;99.90;;;;;;5059531;28;20322;-79
2022/01/08 00:28:45;;;;;;;;;;;1.50;99.90;;;;;;5073692;23;19915;-79
2022/01/08 00:31:11;;;;;;;;;;;1.50;99.90;;;;;;5098673;22;19908;-79
2022/01/08 00:33:37;;;;;;;;;;;1.50;99.90;;;;;;5099507;28;19924;-79
2022/01/08 00:36:04;;;;;;;;;;;1.50;99.90;;;;;;5103864;28;19965;-79
2022/01/08 00:38:30;;;;;;;;;;;1.50;99.90;;;;;;5102894;28;19928;-79
2022/01/08 00:40:55;;;;;;;;;;;1.60;99.90;;;;;;5102989;28;19920;-79
2022/01/08 00:43:21;;;;;;;;;;;1.60;99.90;;;;;;5083994;28;19971;-79
2022/01/08 00:45:47;;;;;;;;;;;1.60;99.90;;;;;;5102125;28;19946;-80
2022/01/08 00:48:13;;;;;;;;;;;1.60;99.90;;;;;;5100364;28;19920;-79
2022/01/08 00:50:38;;;;;;;;;;;1.60;99.90;;;;;;5099388;28;20015;-79
2022/01/08 00:53:04;;;;;;;;;;;1.50;99.90;;;;;;5100650;28;19985;-79
2022/01/08 00:55:30;;;;;;;;;;;1.50;99.90;;;;;;5101723;28;20298;-79
2022/01/08 00:57:55;;;;;;;;;;;1.40;99.90;;;;;;5101056;28;19924;-80
2022/01/08 01:00:21;;;;;;;;;;;1.50;99.90;;;;;;5063646;28;19924;-80
2022/01/08 01:02:47;;;;;;;;;;;1.40;99.90;;;;;;5086655;28;19924;-80
2022/01/08 01:05:12;;;;;;;;;;;1.40;99.90;;;;;;5072136;22;19975;-80
2022/01/08 01:07:38;;;;;;;;;;;1.40;99.90;;;;;;5094577;22;20320;-80
2022/01/08 01:10:05;;;;;;;;;;;1.30;99.90;;;;;;5099671;22;20015;-80
2022/01/08 01:12:30;;;;;;;;;;;1.30;99.90;;;;;;5095162;22;19924;-88
2022/01/08 01:14:56;;;;;;;;;;;1.30;99.90;;;;;;5098261;22;19967;-80
2022/01/08 01:17:21;;;;;;;;;;;1.30;99.90;;;;;;5081195;28;19924;-80
2022/01/08 01:19:48;;;;;;;;;;;1.20;99.90;;;;;;5082278;28;19977;-80
2022/01/08 01:22:17;;;;;;;;;;;1.20;99.90;;;;;;5079613;28;19935;-92
2022/01/08 01:24:43;;;;;;;;;;;1.20;99.90;;;;;;5079328;28;20302;-93
2022/01/08 01:29:52;;;;;;;;;;;1.30;99.90;;;;;;5082129;28;19974;-81
2022/01/08 01:43:25;;;;;;;;;;;1.50;99.90;;;;;;5077498;28;20007;-80
2022/01/08 01:48:35;;;;;;;;;;;1.60;99.90;;;;;;5077802;28;19964;-79
2022/01/08 01:51:01;;;;;;;;;;;1.60;99.90;;;;;;5077890;28;19925;-89
2022/01/08 01:53:26;;;;;;;;;;;1.60;99.90;;;;;;5078066;28;19924;-79
2022/01/08 01:55:52;;;;;;;;;;;1.60;99.90;;;;;;5077817;28;20410;-80
2022/01/08 01:58:18;;;;;;;;;;;1.60;99.90;;;;;;5078096;28;19924;-80
2022/01/08 02:00:44;;;;;;;;;;;1.60;99.90;;;;;;5078092;28;20286;-79
2022/01/08 02:03:10;;;;;;;;;;;1.60;99.90;;;;;;5072978;28;19931;-80
2022/01/08 02:05:35;;;;;;;;;;;1.90;99.90;;;;;;5060497;28;19924;-80
2022/01/08 02:08:01;;;;;;;;;;;1.60;99.90;;;;;;5056780;28;19924;-93
2022/01/08 02:10:26;;;;;;;;;;;1.60;99.90;;;;;;5039548;28;20294;-80
2022/01/08 02:12:52;;;;;;;;;;;1.80;99.90;;;;;;5057863;28;19929;-94
2022/01/08 02:15:18;;;;;;;;;;;1.70;99.90;;;;;;5057406;28;19959;-80
2022/01/08 02:17:43;;;;;;;;;;;1.70;99.90;;;;;;5057909;28;19929;-79
2022/01/08 02:20:10;;;;;;;;;;;1.60;99.90;;;;;;5057343;28;20280;-80
2022/01/08 02:22:36;;;;;;;;;;;1.60;99.90;;;;;;5058706;28;19924;-80
2022/01/08 02:25:02;;;;;;;;;;;2.00;99.90;;;;;;5072811;28;19927;-94
2022/01/08 02:27:28;;;;;;;;;;;1.60;99.90;;;;;;5081872;28;19924;-79
2022/01/08 02:29:53;;;;;;;;;;;1.60;99.90;;;;;;5076403;28;19931;-80
2022/01/08 02:32:23;;;;;;;;;;;1.70;99.90;;;;;;5070704;28;20007;-80
2022/01/08 02:34:48;;;;;;;;;;;1.70;99.90;;;;;;5077055;28;19954;-80
2022/01/08 02:37:15;;;;;;;;;;;1.70;99.90;;;;;;5076748;28;20402;-80
2022/01/08 02:39:42;;;;;;;;;;;1.70;99.90;;;;;;5076560;28;19924;-87
2022/01/08 02:42:09;;;;;;;;;;;1.70;99.90;;;;;;5076537;28;20027;-80
2022/01/08 02:44:34;;;;;;;;;;;2.20;99.90;;;;;;5078121;28;19928;-80
2022/01/08 02:47:00;;;;;;;;;;;2.10;99.90;;;;;;5078515;28;19924;-94
2022/01/08 02:49:26;;;;;;;;;;;1.80;99.90;;;;;;5076174;28;19932;-80
2022/01/08 02:51:52;;;;;;;;;;;1.80;99.90;;;;;;5059869;28;19928;-94
2022/01/08 02:54:17;;;;;;;;;;;2.10;99.90;;;;;;5076430;28;19974;-80
2022/01/08 02:56:47;;;;;;;;;;;1.80;99.90;;;;;;5059124;28;20286;-80
2022/01/08 02:59:13;;;;;;;;;;;2.30;99.90;;;;;;5077410;28;20390;-80
2022/01/08 03:01:38;;;;;;;;;;;1.80;99.90;;;;;;5076423;28;19962;-80
2022/01/08 03:04:04;;;;;;;;;;;1.90;99.90;;;;;;5077194;28;19933;-94
2022/01/08 03:06:30;;;;;;;;;;;1.90;99.90;;;;;;5077148;28;19925;-80
2022/01/08 03:08:56;;;;;;;;;;;1.90;99.90;;;;;;5078705;28;19974;-80
2022/01/08 03:11:21;;;;;;;;;;;2.20;99.90;;;;;;5061477;28;20007;-80
2022/01/08 03:13:47;;;;;;;;;;;1.90;99.90;;;;;;5077845;28;19935;-80
2022/01/08 03:16:13;;;;;;;;;;;2.20;99.90;;;;;;5059809;28;19925;-80
2022/01/08 03:18:38;;;;;;;;;;;1.90;99.90;;;;;;5077987;28;19925;-90
2022/01/08 03:21:14;;;;;;;;;;;1.90;99.90;;;;;;5078216;28;19931;-89
2022/01/08 03:23:47;;;;;;;;;;;1.80;99.90;;;;;;5079292;28;19924;-80
2022/01/08 03:26:13;;;;;;;;;;;1.80;99.90;;;;;;5079114;28;19927;-80
2022/01/08 03:28:38;;;;;;;;;;;1.70;99.90;;;;;;5059591;28;20291;-85
2022/01/08 03:31:04;;;;;;;;;;;1.70;99.90;;;;;;5078256;28;19928;-94
2022/01/08 03:33:29;;;;;;;;;;;1.60;99.90;;;;;;5059779;28;19925;-80
2022/01/08 03:35:55;;;;;;;;;;;1.60;99.90;;;;;;5077719;28;19931;-80
2022/01/08 03:38:21;;;;;;;;;;;1.60;99.90;;;;;;5078979;28;19980;-80
2022/01/08 03:40:46;;;;;;;;;;;1.80;99.90;;;;;;5078524;28;19931;-80
2022/01/08 03:43:12;;;;;;;;;;;1.50;99.90;;;;;;5078905;28;19924;-80
2022/01/08 03:45:37;;;;;;;;;;;1.40;99.90;;;;;;5061348;28;20291;-80
2022/01/08 03:50:44;;;;;;;;;;;1.40;99.90;;;;;;5079529;28;19976;-80
2022/01/08 03:53:10;;;;;;;;;;;1.40;99.90;;;;;;5061326;28;19925;-80
2022/01/08 03:55:35;;;;;;;;;;;1.40;99.90;;;;;;5079525;28;19925;-80
2022/01/08 03:58:01;;;;;;;;;;;1.30;99.90;;;;;;5077792;28;19931;-94
2022/01/08 04:00:26;;;;;;;;;;;1.30;99.90;;;;;;5078584;28;20020;-80
2022/01/08 04:02:53;;;;;;;;;;;1.20;99.90;;;;;;5076913;28;19926;-91
2022/01/08 04:05:19;;;;;;;;;;;1.50;99.90;;;;;;5080691;28;19908;-80
2022/01/08 04:07:44;;;;;;;;;;;1.10;99.90;;;;;;5084144;28;19981;-82
2022/01/08 04:10:10;;;;;;;;;;;1.00;99.90;;;;;;5080398;28;20434;-80
2022/01/08 04:12:43;;;;;;;;;;;1.00;99.90;;;;;;5080822;28;20284;-80
2022/01/08 04:15:32;;;;;;;;;;;1.00;99.90;;;;;;5081601;28;19964;-80
2022/01/08 04:17:55;;;;;;;;;;;1.00;99.90;;;;;;5079778;28;19928;-80
2022/01/08 04:20:21;;;;;;;;;;;0.90;99.90;;;;;;5081746;28;19910;-80
2022/01/08 04:22:49;;;;;;;;;;;0.90;99.90;;;;;;5062751;28;19977;-80
2022/01/08 04:25:16;;;;;;;;;;;0.80;99.90;;;;;;5062532;28;19921;-80
2022/01/08 04:27:41;;;;;;;;;;;0.80;99.90;;;;;;5078271;28;19931;-80
2022/01/08 04:30:07;;;;;;;;;;;0.80;99.90;;;;;;5080748;28;20355;-80
2022/01/08 04:32:33;;;;;;;;;;;0.80;99.90;;;;;;5068614;22;19976;-81
2022/01/08 04:34:58;;;;;;;;;;;0.70;99.90;;;;;;5082677;22;19946;-80
2022/01/08 04:37:24;;;;;;;;;;;0.70;99.90;;;;;;5105529;22;19924;-80
2022/01/08 04:39:49;;;;;;;;;;;0.80;99.90;;;;;;5073484;22;19924;-84
2022/01/08 04:42:15;;;;;;;;;;;0.80;99.90;;;;;;5102308;22;19924;-80
2022/01/08 04:44:41;;;;;;;;;;;0.70;99.90;;;;;;5098160;22;19924;-80
2022/01/08 04:47:12;;;;;;;;;;;0.80;99.90;;;;;;5080125;22;20395;-95
2022/01/08 04:49:38;;;;;;;;;;;0.80;99.90;;;;;;5085784;22;19925;-80
2022/01/08 04:52:10;;;;;;;;;;;0.90;99.90;;;;;;5104627;22;19924;-94
2022/01/08 04:54:36;;;;;;;;;;;0.90;99.90;;;;;;5127123;22;19925;-80
2022/01/08 04:57:02;;;;;;;;;;;0.80;99.90;;;;;;5088446;22;19931;-81
2022/01/08 04:59:27;;;;;;;;;;;0.90;99.90;;;;;;5063037;22;19974;-95
2022/01/08 05:01:53;;;;;;;;;;;0.90;99.90;;;;;;5090113;22;19924;-94
2022/01/08 05:04:18;;;;;;;;;;;0.90;99.90;;;;;;5090603;22;19924;-81
2022/01/08 05:06:44;;;;;;;;;;;0.80;99.90;;;;;;5086539;22;19947;-81
2022/01/08 05:09:09;;;;;;;;;;;0.80;99.90;;;;;;5080437;22;19967;-80
2022/01/08 05:11:35;;;;;;;;;;;0.70;99.90;;;;;;5087208;22;20367;-81
2022/01/08 05:14:09;;;;;;;;;;;0.70;99.90;;;;;;5098362;22;19924;-94
2022/01/08 05:16:35;;;;;;;;;;;0.70;99.90;;;;;;5088355;22;20008;-86
2022/01/08 05:19:06;;;;;;;;;;;0.70;99.90;;;;;;5102575;22;19970;-92
2022/01/08 05:21:36;;;;;;;;;;;0.60;99.90;;;;;;5123600;22;19948;-80
2022/01/08 05:24:08;;;;;;;;;;;0.60;99.90;;;;;;5082106;23;19932;-95
2022/01/08 05:26:34;;;;;;;;;;;0.60;99.90;;;;;;5092196;22;19924;-95
2022/01/08 05:29:06;;;;;;;;;;;0.60;99.90;;;;;;5105854;22;19931;-92
2022/01/08 05:31:32;;;;;;;;;;;0.60;99.90;;;;;;5092874;22;20105;-94
2022/01/08 05:33:58;;;;;;;;;;;0.60;99.90;;;;;;5094490;22;20402;-81
2022/01/08 05:36:23;;;;;;;;;;;0.80;99.90;;;;;;5092839;22;19924;-80
2022/01/08 05:38:49;;;;;;;;;;;0.50;99.90;;;;;;5062963;23;19925;-80
2022/01/08 05:41:15;;;;;;;;;;;0.40;99.90;;;;;;5087156;22;19925;-80
2022/01/08 05:43:40;;;;;;;;;;;1.00;99.90;;;;;;5065033;28;20425;-93
2022/01/08 05:46:06;;;;;;;;;;;0.40;99.90;;;;;;5106166;22;19931;-80
2022/01/08 05:48:32;;;;;;;;;;;0.40;99.90;;;;;;5076110;23;19925;-81
2022/01/08 05:50:58;;;;;;;;;;;0.40;99.90;;;;;;5047176;28;19974;-81
2022/01/08 05:53:24;;;;;;;;;;;0.30;99.90;;;;;;5052206;28;20011;-81
2022/01/08 05:55:49;;;;;;;;;;;0.30;99.90;;;;;;5073556;22;19962;-81
2022/01/08 05:58:15;;;;;;;;;;;0.30;99.90;;;;;;5101434;22;19931;-80
2022/01/08 06:00:41;;;;;;;;;;;0.30;99.90;;;;;;5081642;23;19938;-80
2022/01/08 06:03:06;;;;;;;;;;;0.30;99.90;;;;;;5084541;22;19927;-81
2022/01/08 06:05:32;;;;;;;;;;;0.20;99.90;;;;;;5089988;22;19924;-81
2022/01/08 06:08:03;;;;;;;;;;;0.30;99.90;;;;;;5092042;22;20015;-81
2022/01/08 06:10:28;;;;;;;;;;;0.20;99.90;;;;;;5090531;22;19927;-80
2022/01/08 06:12:54;;;;;;;;;;;0.20;99.90;;;;;;5067628;28;19924;-80
2022/01/08 06:15:20;;;;;;;;;;;0.20;99.90;;;;;;5082258;22;19924;-80
2022/01/08 06:17:46;;;;;;;;;;;0.20;99.90;;;;;;5089589;22;19915;-81
2022/01/08 06:20:12;;;;;;;;;;;0.20;99.90;;;;;;5086833;22;19923;-80
2022/01/08 06:22:37;;;;;;;;;;;0.20;99.90;;;;;;5081532;23;19936;-81
2022/01/08 06:27:36;;;;;;;;;;;0.20;99.90;;;;;;5112142;22;19932;-80
2022/01/08 06:30:08;;;;;;;;;;;0.20;99.90;;;;;;5093258;22;19936;-81
2022/01/08 06:32:34;;;;;;;;;;;0.10;99.90;;;;;;5079088;22;19982;-80
2022/01/08 06:35:06;;;;;;;;;;;0.10;99.90;;;;;;5068309;22;20023;-80
2022/01/08 06:37:32;;;;;;;;;;;0.10;99.90;;;;;;5093260;22;19925;-80
2022/01/08 06:40:13;;;;;;;;;;;0.10;99.90;;;;;;5098552;22;19931;-80
2022/01/08 06:42:38;;;;;;;;;;;0.60;99.90;;;;;;5092256;22;20370;-80
2022/01/08 06:45:05;;;;;;;;;;;0.40;99.90;;;;;;5096239;22;19932;-79
2022/01/08 06:47:32;;;;;;;;;;;0.10;99.90;;;;;;5096499;22;19924;-89
2022/01/08 06:50:03;;;;;;;;;;;0.10;99.90;;;;;;5083152;28;19924;-80
2022/01/08 06:52:29;;;;;;;;;;;0.00;99.90;;;;;;5108675;22;20013;-82
2022/01/08 06:54:54;;;;;;;;;;;0.50;99.90;;;;;;5092857;22;20419;-82
2022/01/08 06:57:20;;;;;;;;;;;0.50;99.90;;;;;;5086277;22;20290;-80
2022/01/08 06:59:46;;;;;;;;;;;0.10;99.90;;;;;;5098872;22;19931;-80
2022/01/08 07:02:11;;;;;;;;;;;0.30;99.90;;;;;;5100286;22;19938;-80
2022/01/08 07:04:37;;;;;;;;;;;0.40;99.90;;;;;;5093107;22;20730;-80
2022/01/08 07:09:28;;;;;;;;;;;0.50;99.90;;;;;;5118497;22;19978;-80
2022/01/08 07:11:53;;;;;;;;;;;0.50;99.90;;;;;;5104364;22;19947;-80
2022/01/08 07:14:19;;;;;;;;;;;0.60;99.90;;;;;;5080462;22;20270;-81
2022/01/08 07:16:46;;;;;;;;;;;0.50;99.90;;;;;;5096833;22;19936;-80
2022/01/08 07:19:11;;;;;;;;;;;0.50;99.90;;;;;;5086842;22;19925;-80
2022/01/08 07:21:37;;;;;;;;;;;0.50;99.90;;;;;;5095876;22;19929;-81
2022/01/08 07:24:09;;;;;;;;;;;0.50;99.90;;;;;;5101314;22;20268;-80
2022/01/08 07:26:35;;;;;;;;;;;0.40;99.90;;;;;;5095510;22;19994;-80
2022/01/08 07:29:07;;;;;;;;;;;0.40;99.90;;;;;;5083825;22;19924;-81
2022/01/08 07:31:33;;;;;;;;;;;0.40;99.90;;;;;;5096122;22;20018;-80
2022/01/08 07:33:59;;;;;;;;;;;0.40;99.90;;;;;;5089677;22;19971;-80
2022/01/08 07:36:24;;;;;;;;;;;0.30;99.90;;;;;;5096092;22;19932;-80
2022/01/08 07:38:50;;;;;;;;;;;0.30;99.90;;;;;;5071628;23;19924;-81
2022/01/08 07:41:15;;;;;;;;;;;0.30;99.90;;;;;;5095090;22;19929;-80
2022/01/08 07:43:41;;;;;;;;;;;0.30;99.90;;;;;;5083897;22;19977;-82
2022/01/08 07:46:13;;;;;;;;;;;0.70;99.90;;;;;;5078966;22;19947;-80
2022/01/08 07:48:40;;;;;;;;;;;0.20;99.90;;;;;;5083992;22;19928;-81
2022/01/08 07:51:06;;;;;;;;;;;0.20;99.90;;;;;;5089662;22;19925;-80
2022/01/08 07:53:32;;;;;;;;;;;0.20;99.90;;;;;;5074052;22;19924;-80
2022/01/08 07:55:57;;;;;;;;;;;0.20;99.90;;;;;;5086710;22;20439;-80
2022/01/08 07:58:23;;;;;;;;;;;0.20;99.90;;;;;;5079577;22;19925;-80
2022/01/08 08:00:49;;;;;;;;;;;0.20;99.90;;;;;;5092137;22;19909;-80
2022/01/08 08:03:18;;;;;;;;;;;0.30;99.90;;;;;;5101329;22;19924;-80
2022/01/08 08:05:45;;;;;;;;;;;0.30;99.90;;;;;;5072872;23;19974;-80
2022/01/08 08:08:17;;;;;;;;;;;0.40;99.90;;;;;;5083258;22;19908;-80
2022/01/08 08:10:43;;;;;;;;;;;0.40;99.90;;;;;;5087781;22;19924;-80
2022/01/08 08:13:10;;;;;;;;;;;1.20;99.90;;;;;;5101483;22;19951;-80
2022/01/08 08:15:36;;;;;;;;;;;0.50;99.90;;;;;;5091713;22;19925;-80
2022/01/08 08:18:05;;;;;;;;;;;0.50;99.90;;;;;;5061909;22;19992;31
2022/01/08 08:20:31;;;;;;;;;;;0.50;99.90;;;;;;5095809;22;19932;-80
2022/01/08 08:22:57;;;;;;;;;;;0.60;99.90;;;;;;5082567;22;19925;-80
2022/01/08 08:25:22;;;;;;;;;;;0.60;99.90;;;;;;5075165;22;19909;-80
2022/01/08 08:27:50;;;;;;;;;;;0.70;99.90;;;;;;5087121;22;19925;-80
2022/01/08 08:30:20;;;;;;;;;;;0.80;99.90;;;;;;5080811;22;20399;-80
2022/01/08 08:32:46;;;;;;;;;;;1.40;99.90;;;;;;5095572;22;19970;-80
2022/01/08 08:35:12;;;;;;;;;;;0.90;99.90;;;;;;5018943;22;2151710;-80
2022/01/08 08:37:38;;;;;;;;;;;1.00;99.90;;;;;;5102782;22;19929;-80
2022/01/08 08:40:11;;;;;;;;;;;1.00;99.90;;;;;;5096938;22;19967;-81
2022/01/08 08:42:36;;;;;;;;;;;1.10;99.90;;;;;;5088890;22;19925;-80
2022/01/08 08:45:09;;;;;;;;;;;1.10;99.90;;;;;;5049661;22;19908;-81
2022/01/08 08:47:35;;;;;;;;;;;1.10;99.90;;;;;;5070692;22;19925;-80
2022/01/08 08:50:06;;;;;;;;;;;1.10;99.90;;;;;;5101196;22;19924;-80
2022/01/08 08:52:32;;;;;;;;;;;1.20;99.90;;;;;;5092276;22;20006;-80
2022/01/08 08:55:00;;;;;;;;;;;1.20;99.90;;;;;;5063792;22;20321;-81
2022/01/08 08:57:25;;;;;;;;;;;1.60;99.90;;;;;;5073286;22;20359;-80
2022/01/08 08:59:51;;;;;;;;;;;1.20;99.90;;;;;;5088866;22;19930;-80
2022/01/08 09:02:17;;;;;;;;;;;1.70;99.90;;;;;;5078592;22;19967;-80
2022/01/08 09:04:43;;;;;;;;;;;1.20;99.90;;;;;;5085983;22;20456;-80
2022/01/08 09:07:09;;;;;;;;;;;1.20;99.90;;;;;;5066411;22;19928;-81
2022/01/08 09:09:35;;;;;;;;;;;1.20;99.90;;;;;;5081460;22;20022;-81
2022/01/08 09:12:10;;;;;;;;;;;1.30;99.90;;;;;;5085689;22;19978;-80
2022/01/08 09:14:35;;;;;;;;;;;1.30;99.90;;;;;;5085581;22;20434;-81
2022/01/08 09:17:03;;;;;;;;;;;1.30;99.90;;;;;;5086554;22;20014;-81
2022/01/08 09:19:29;;;;;;;;;;;1.40;99.90;;;;;;5072775;22;20033;-81
2022/01/08 09:21:56;;;;;;;;;;;1.30;99.90;;;;;;5083193;23;20428;-80
2022/01/08 09:24:22;;;;;;;;;;;1.40;99.90;;;;;;5089470;22;20718;-81
2022/01/08 09:26:48;;;;;;;;;;;1.30;99.90;;;;;;5112693;22;19908;-80
2022/01/08 09:29:14;;;;;;;;;;;1.30;99.90;;;;;;5100580;22;19951;-80
2022/01/08 09:31:40;;;;;;;;;;;1.40;99.90;;;;;;5088678;22;20390;-81
2022/01/08 09:34:09;;;;;;;;;;;1.40;99.90;;;;;;5105482;22;19931;-80
2022/01/08 09:36:37;;;;;;;;;;;1.40;99.90;;;;;;5102215;22;19936;-81
2022/01/08 09:39:09;;;;;;;;;;;1.40;99.90;;;;;;5099643;22;19931;-81
2022/01/08 09:41:35;;;;;;;;;;;1.50;99.90;;;;;;5084426;22;20376;-80
2022/01/08 09:44:07;;;;;;;;;;;1.50;99.90;;;;;;5085947;22;19908;-81
2022/01/08 09:46:33;;;;;;;;;;;1.60;99.90;;;;;;5090516;22;19934;-81
2022/01/08 09:48:59;;;;;;;;;;;1.60;99.90;;;;;;5090599;22;20328;-80
2022/01/08 09:51:28;;;;;;;;;;;1.70;99.90;;;;;;5192823;22;19949;-80
2022/01/08 09:53:54;;;;;;;;;;;1.70;99.90;;;;;;5097230;22;20339;-80
2022/01/08 09:56:22;;;;;;;;;;;1.80;99.90;;;;;;5096440;22;19947;-81
2022/01/08 09:58:47;;;;;;;;;;;1.80;99.90;;;;;;5085558;22;19984;-81
2022/01/08 10:01:33;;;;;;;;;;;1.90;99.90;;;;;;5104274;22;19971;-81
2022/01/08 10:04:00;;;;;;;;;;;1.90;99.90;;;;;;5086715;22;19924;-81
2022/01/08 10:06:30;;;;;;;;;;;2.00;99.90;;;;;;5094753;22;20009;-81
2022/01/08 10:08:56;;;;;;;;;;;2.00;99.90;;;;;;5089228;23;19924;-80
2022/01/08 10:11:22;;;;;;;;;;;2.00;99.90;;;;;;5120799;22;19909;-80
2022/01/08 10:13:58;;;;;;;;;;;2.10;99.90;;;;;;5086033;22;20023;-80
2022/01/08 10:19:21;;;;;;;;;;;2.80;99.90;;;;;;5118329;22;20007;-80
2022/01/08 10:21:48;;;;;;;;;;;2.20;99.90;;;;;;5095917;22;20255;-82
2022/01/08 10:24:23;;;;;;;;;;;2.20;99.90;;;;;;5067674;22;19929;-81
2022/01/08 10:26:51;;;;;;;;;;;2.30;99.90;;;;;;5094670;22;19924;-81
2022/01/08 10:29:18;;;;;;;;;;;2.30;99.90;;;;;;5119691;22;19924;-81
2022/01/08 10:31:48;;;;;;;;;;;2.40;99.90;;;;;;5241617;22;19908;-80
2022/01/08 10:34:25;;;;;;;;;;;2.40;99.90;;;;;;5096752;22;19915;-80
2022/01/08 10:36:54;;;;;;;;;;;2.50;99.90;;;;;;5084683;22;19923;-80
2022/01/08 10:39:32;;;;;;;;;;;2.50;99.90;;;;;;5094870;22;19925;-80
2022/01/08 10:42:13;;;;;;;;;;;2.60;99.90;;;;;;5086419;22;19919;-80
2022/01/08 10:44:39;;;;;;;;;;;2.70;99.90;;;;;;5106139;22;19924;-80
2022/01/08 10:49:36;;;;;;;;;;;2.80;99.90;;;;;;5118691;22;19928;-80
2022/01/08 10:52:28;;;;;;;;;;;2.80;99.90;;;;;;5109539;22;19932;-80
2022/01/08 10:54:55;;;;;;;;;;;2.80;99.90;;;;;;5063202;22;19955;-80
2022/01/08 10:57:29;;;;;;;;;;;2.90;99.90;;;;;;5072306;23;19925;-80
2022/01/08 10:59:55;;;;;;;;;;;2.90;99.90;;;;;;5074424;23;19935;-80
2022/01/08 11:02:26;;;;;;;;;;;2.90;99.90;;;;;;5086862;22;19930;-80
2022/01/08 11:05:07;;;;;;;;;;;2.90;99.90;;;;;;5115744;22;19938;-80
2022/01/08 11:07:34;;;;;;;;;;;3.00;99.90;;;;;;5082916;22;19952;-80
2022/01/08 11:10:03;;;;;;;;;;;3.00;99.90;;;;;;5094461;22;19983;-81
2022/01/08 11:12:35;;;;;;;;;;;3.10;99.90;;;;;;5096577;22;20197;-80
2022/01/08 11:17:51;;;;;;;;;;;3.10;99.90;;;;;;5101740;22;19930;-81
2022/01/08 11:20:22;;;;;;;;;;;3.20;99.90;;;;;;5114973;22;19928;-80
2022/01/08 11:22:56;;;;;;;;;;;3.20;99.90;;;;;;5089770;22;19940;-80
2022/01/08 11:25:27;;;;;;;;;;;3.30;99.90;;;;;;5090118;22;19923;-81
2022/01/08 11:28:05;;;;;;;;;;;3.30;99.90;;;;;;5095096;22;19989;-80
2022/01/08 11:30:32;;;;;;;;;;;3.30;99.90;;;;;;5105216;22;19928;-80
2022/01/08 11:33:05;;;;;;;;;;;3.30;99.90;;;;;;5097532;22;19970;-81
2022/01/08 11:35:32;;;;;;;;;;;3.30;99.90;;;;;;5098685;22;20059;-80
2022/01/08 11:38:02;;;;;;;;;;;3.40;99.90;;;;;;5092247;22;19993;-82
2022/01/08 11:40:31;;;;;;;;;;;3.40;99.90;;;;;;5100223;23;19959;-81
2022/01/08 11:43:03;;;;;;;;;;;3.40;99.90;;;;;;5071406;23;20441;-81
2022/01/08 11:45:34;;;;;;;;;;;3.40;99.90;;;;;;5159035;22;19930;-81
2022/01/08 11:48:05;;;;;;;;;;;3.40;99.90;;;;;;5099873;22;19924;-80
2022/01/08 11:50:35;;;;;;;;;;;3.40;99.90;;;;;;5111586;22;19939;-80
2022/01/08 11:53:21;;;;;;;;;;;3.30;99.90;;;;;;5085592;22;19925;-80
2022/01/08 11:56:05;;;;;;;;;;;3.40;99.90;;;;;;5095839;22;19924;-80
2022/01/08 11:58:32;;;;;;;;;;;3.40;99.90;;;;;;5122428;22;19920;-80
2022/01/08 12:01:11;;;;;;;;;;;4.00;99.90;;;;;;5139212;22;19981;-81
2022/01/08 12:03:58;;;;;;;;;;;3.50;99.90;;;;;;5163651;23;19928;-81
2022/01/08 12:06:31;;;;;;;;;;;3.40;99.90;;;;;;5105099;22;19965;-80
2022/01/08 12:09:21;;;;;;;;;;;3.90;99.90;;;;;;5111977;22;19958;-80
2022/01/08 12:11:46;;;;;;;;;;;3.50;99.90;;;;;;5093936;22;20030;-80
2022/01/08 12:14:13;;;;;;;;;;;3.50;99.90;;;;;;5114494;22;19908;-81
2022/01/08 12:16:40;;;;;;;;;;;3.50;99.90;;;;;;5094530;22;19935;-86
2022/01/08 12:19:07;;;;;;;;;;;3.50;99.90;;;;;;5113734;22;19924;-80
2022/01/08 12:21:33;;;;;;;;;;;3.90;99.90;;;;;;5067734;23;19936;-80
2022/01/08 12:23:59;;;;;;;;;;;3.50;99.90;;;;;;5201330;22;19908;-80
2022/01/08 12:26:25;;;;;;;;;;;3.90;99.90;;;;;;5104644;22;20026;-80
2022/01/08 12:28:53;;;;;;;;;;;3.50;99.90;;;;;;5091407;22;19972;-80
2022/01/08 12:31:22;;;;;;;;;;;3.50;99.90;;;;;;5084122;22;19992;-80
2022/01/08 12:34:07;;;;;;;;;;;3.40;99.90;;;;;;5100515;22;19946;-81
2022/01/08 12:36:33;;;;;;;;;;;3.50;99.90;;;;;;5106799;23;20292;-86
2022/01/08 12:39:03;;;;;;;;;;;3.50;99.90;;;;;;5076932;23;19924;-80
2022/01/08 12:41:33;;;;;;;;;;;3.40;99.90;;;;;;5097061;22;19924;-81
2022/01/08 12:44:18;;;;;;;;;;;3.40;99.90;;;;;;5073368;23;19931;-80
2022/01/08 12:46:44;;;;;;;;;;;3.40;99.90;;;;;;5098250;22;19924;-81
2022/01/08 12:49:14;;;;;;;;;;;3.40;99.90;;;;;;5095540;23;19924;-81
2022/01/08 12:51:49;;;;;;;;;;;3.50;99.90;;;;;;5098712;23;19932;-81
2022/01/08 12:54:17;;;;;;;;;;;3.40;99.90;;;;;;5112362;22;19977;-81
2022/01/08 12:56:47;;;;;;;;;;;3.90;99.90;;;;;;5083300;23;19929;-80
2022/01/08 12:59:16;;;;;;;;;;;3.40;99.90;;;;;;5120585;22;19928;-80
2022/01/08 13:01:47;;;;;;;;;;;3.40;99.90;;;;;;5075347;23;19931;-80
2022/01/08 13:04:28;;;;;;;;;;;3.40;99.90;;;;;;5106653;22;19924;-79
2022/01/08 13:06:54;;;;;;;;;;;3.40;99.90;;;;;;5071507;22;19924;-83
2022/01/08 13:09:20;;;;;;;;;;;3.40;99.90;;;;;;5101603;22;19924;-80
2022/01/08 13:11:46;;;;;;;;;;;3.40;99.90;;;;;;5093990;22;19909;-80
2022/01/08 13:14:28;;;;;;;;;;;3.50;99.90;;;;;;5115684;22;19908;-80
2022/01/08 13:16:56;;;;;;;;;;;3.50;99.90;;;;;;5098280;22;19908;-80
2022/01/08 13:19:24;;;;;;;;;;;3.50;99.90;;;;;;5100687;22;19932;-81
2022/01/08 13:21:54;;;;;;;;;;;3.40;99.90;;;;;;5115431;22;19924;-82
2022/01/08 13:24:24;;;;;;;;;;;3.50;99.90;;;;;;5107844;22;19925;-80
2022/01/08 13:26:54;;;;;;;;;;;3.40;99.90;;;;;;5073088;22;19915;-80
2022/01/08 13:29:21;;;;;;;;;;;3.40;99.90;;;;;;5096887;22;19989;-80
2022/01/08 13:31:49;;;;;;;;;;;4.10;99.90;;;;;;5086985;22;20301;-80
2022/01/08 13:34:15;;;;;;;;;;;3.40;99.90;;;;;;5111814;22;19963;-80
2022/01/08 13:37:14;;;;;;;;;;;3.40;99.90;;;;;;5086375;22;19951;-80
2022/01/08 13:39:44;;;;;;;;;;;3.40;99.90;;;;;;5097402;22;19924;-80
2022/01/08 13:42:15;;;;;;;;;;;3.40;99.90;;;;;;5112388;22;19924;-82
2022/01/08 13:44:42;;;;;;;;;;;3.40;99.90;;;;;;5086439;22;19964;-80
2022/01/08 13:47:14;;;;;;;;;;;3.40;99.90;;;;;;5106306;22;19924;-81
2022/01/08 13:49:41;;;;;;;;;;;3.40;99.90;;;;;;5024424;22;1904430;-80
2022/01/08 13:52:15;;;;;;;;;;;3.40;99.90;;;;;;5133849;22;19924;-80
2022/01/08 13:54:41;;;;;;;;;;;3.70;99.90;;;;;;5082440;23;19925;-80
2022/01/08 13:57:14;;;;;;;;;;;3.40;99.90;;;;;;5098727;22;19930;-80
2022/01/08 13:59:40;;;;;;;;;;;3.30;99.90;;;;;;5105494;22;19945;-80
2022/01/08 14:02:06;;;;;;;;;;;3.40;99.90;;;;;;5111551;22;20022;-80
2022/01/08 14:04:33;;;;;;;;;;;3.30;99.90;;;;;;5091761;22;20376;-80
2022/01/08 14:06:59;;;;;;;;;;;3.30;99.90;;;;;;5105455;22;19993;-80
2022/01/08 14:09:24;;;;;;;;;;;3.30;99.90;;;;;;5104620;22;19909;-80
2022/01/08 14:12:11;;;;;;;;;;;3.30;99.90;;;;;;5096309;22;19953;-80
2022/01/08 14:14:49;;;;;;;;;;;3.30;99.90;;;;;;5083459;22;19971;-80
2022/01/08 14:17:15;;;;;;;;;;;3.30;99.90;;;;;;5101290;22;19923;-80
2022/01/08 14:19:41;;;;;;;;;;;3.80;99.90;;;;;;5082909;23;19963;-80
2022/01/08 14:22:09;;;;;;;;;;;3.20;99.90;;;;;;5091435;22;19931;-80
2022/01/08 14:24:36;;;;;;;;;;;3.20;99.90;;;;;;5085009;23;19930;-80
2022/01/08 14:27:09;;;;;;;;;;;3.20;99.90;;;;;;5095018;23;19924;-80
2022/01/08 14:29:39;;;;;;;;;;;3.20;99.90;;;;;;5076890;22;20394;-80
2022/01/08 14:32:06;;;;;;;;;;;3.20;99.90;;;;;;5102998;23;19994;-83
2022/01/08 14:34:48;;;;;;;;;;;3.20;99.90;;;;;;5086320;22;20397;-80
2022/01/08 14:37:28;;;;;;;;;;;3.20;99.90;;;;;;5095340;22;19954;-79
2022/01/08 14:39:54;;;;;;;;;;;3.10;99.90;;;;;;5084484;22;19924;-80
2022/01/08 14:42:20;;;;;;;;;;;3.10;99.90;;;;;;5084872;22;19912;-80
2022/01/08 14:44:57;;;;;;;;;;;3.40;99.90;;;;;;5085128;22;20441;-80
2022/01/08 14:47:30;;;;;;;;;;;3.00;99.90;;;;;;5083715;22;19916;-80
2022/01/08 14:49:55;;;;;;;;;;;3.00;99.90;;;;;;5077056;23;19998;-80
2022/01/08 14:52:21;;;;;;;;;;;3.50;99.90;;;;;;5084820;22;19975;-80
2022/01/08 14:54:47;;;;;;;;;;;2.90;99.90;;;;;;5097581;23;19932;-87
2022/01/08 14:57:12;;;;;;;;;;;3.40;99.90;;;;;;5108830;27;19965;-80
2022/01/08 14:59:38;;;;;;;;;;;2.80;99.90;;;;;;5109929;23;19960;-84
2022/01/08 15:02:10;;;;;;;;;;;2.80;99.90;;;;;;5080482;23;19930;-80
2022/01/08 15:04:37;;;;;;;;;;;2.80;99.90;;;;;;5070690;22;19925;-81
2022/01/08 15:07:03;;;;;;;;;;;2.70;99.90;;;;;;5023557;28;19926;-93
2022/01/08 15:09:29;;;;;;;;;;;2.70;99.90;;;;;;5042257;28;19925;-81